JHW weather

Chautauqua County-Jamestown Airport
Jamestown, New York, United States

Public forecast

Using degrees Fahrenheit for public forecast. Weather courtesy of forecast.io.

Current aviation weather report (METAR) for Chautauqua County-Jamestown Airport

Retrieved 2019/12/13 06:56 UTC (35 minutes ago):

KJHW 130656Z AUTO 17008KT 10SM CLR M03/M09 A3023 RMK AO2 SLP265 T10331089 FZRANO

Aviation forecast (TAF) for Chautauqua County-Jamestown Airport

Retrieved 2019/12/13 06:24 UTC (1 hour ago):

TAF KJHW 130521Z 1306/1406 17013G21KT P6SM SCT250 FM131800 17011G20KT P6SM BKN050 FM132100 15008KT P6SM BKN025 FM140000 16008KT P6SM VCSH OVC012 FM140500 VRB03KT 5SM BR VCSH OVC003